createdAt,value
2022-09-21T00:00:27.303Z,11.75
2022-09-21T00:01:27.398Z,11.73
2022-09-21T00:02:27.292Z,11.73
2022-09-21T00:03:27.255Z,11.73
2022-09-21T00:04:27.254Z,11.66
2022-09-21T00:05:27.257Z,11.77
2022-09-21T00:06:27.234Z,11.65
2022-09-21T00:07:27.221Z,11.70
2022-09-21T00:08:27.223Z,11.63
2022-09-21T00:09:27.200Z,11.62
2022-09-21T00:10:27.220Z,11.66
2022-09-21T00:11:27.183Z,11.70
2022-09-21T00:12:27.158Z,11.65
2022-09-21T00:13:27.161Z,11.68
2022-09-21T00:14:27.137Z,11.66
2022-09-21T00:15:27.148Z,11.69
2022-09-21T00:16:27.209Z,11.62
2022-09-21T00:17:27.110Z,11.65
2022-09-21T00:18:27.095Z,11.69
2022-09-21T00:19:27.093Z,11.65
2022-09-21T00:20:27.078Z,11.63
2022-09-21T00:21:27.076Z,11.62
2022-09-21T00:22:27.053Z,11.63
2022-09-21T00:23:27.052Z,11.66
2022-09-21T00:24:27.035Z,11.73
2022-09-21T00:25:27.024Z,11.69
2022-09-21T00:26:27.038Z,11.63
2022-09-21T00:27:27.047Z,11.68
2022-09-21T00:28:26.995Z,11.70
2022-09-21T00:29:26.985Z,11.66
2022-09-21T00:30:27.020Z,11.68
2022-09-21T00:31:27.067Z,11.63
2022-09-21T00:32:27.115Z,11.59
2022-09-21T00:33:26.954Z,11.63
2022-09-21T00:34:26.931Z,11.62
2022-09-21T00:35:26.919Z,11.68
2022-09-21T00:36:26.911Z,11.68
2022-09-21T00:37:26.914Z,11.65
2022-09-21T00:38:26.910Z,11.63
2022-09-21T00:39:26.875Z,11.63
2022-09-21T00:40:26.927Z,11.63
2022-09-21T00:41:26.853Z,11.60
2022-09-21T00:42:26.872Z,11.54
2022-09-21T00:43:26.845Z,11.59
2022-09-21T00:44:26.821Z,11.62
2022-09-21T00:45:36.119Z,11.57
2022-09-21T00:46:26.792Z,11.57
2022-09-21T00:47:26.785Z,11.59
2022-09-21T00:48:26.791Z,11.60
2022-09-21T00:49:26.759Z,11.57
2022-09-21T00:50:26.745Z,11.63
2022-09-21T00:51:26.740Z,11.60
2022-09-21T00:52:26.726Z,11.55
2022-09-21T00:53:26.739Z,11.59
2022-09-21T00:54:26.707Z,11.62
2022-09-21T00:55:26.702Z,11.57
2022-09-21T00:56:26.685Z,11.51
2022-09-21T00:57:26.717Z,11.51
2022-09-21T00:58:26.724Z,11.55
2022-09-21T00:59:30.147Z,11.59
2022-09-21T01:00:26.643Z,11.55
2022-09-21T01:01:26.745Z,11.55
2022-09-21T01:02:26.659Z,11.55
2022-09-21T01:03:26.616Z,11.62
2022-09-21T01:04:26.614Z,11.54
2022-09-21T01:05:26.605Z,11.50
2022-09-21T01:06:26.611Z,11.59
2022-09-21T01:07:26.575Z,11.57
2022-09-21T01:08:26.563Z,11.50
2022-09-21T01:09:26.545Z,11.59
2022-09-21T01:10:26.546Z,11.52
2022-09-21T01:11:26.524Z,11.48
2022-09-21T01:12:26.519Z,11.52
2022-09-21T01:13:26.529Z,11.50
2022-09-21T01:14:26.511Z,11.54
2022-09-21T01:15:26.529Z,11.51
2022-09-21T01:16:26.517Z,11.52
2022-09-21T01:17:26.462Z,11.47
2022-09-21T01:18:26.488Z,11.47
2022-09-21T01:19:26.465Z,11.47
2022-09-21T01:20:26.466Z,11.52
2022-09-21T01:21:26.448Z,11.52
2022-09-21T01:22:26.402Z,11.44
2022-09-21T01:23:27.401Z,11.50
2022-09-21T01:24:26.390Z,11.44
2022-09-21T01:25:26.369Z,11.47
2022-09-21T01:26:26.379Z,11.57
2022-09-21T01:27:26.352Z,11.41
2022-09-21T01:28:26.350Z,11.40
2022-09-21T01:29:26.325Z,11.43
2022-09-21T01:30:26.353Z,11.51
2022-09-21T01:31:26.368Z,11.55
2022-09-21T01:32:26.303Z,11.47
2022-09-21T01:33:26.289Z,11.55
2022-09-21T01:34:26.272Z,11.41
2022-09-21T01:35:26.263Z,11.43
2022-09-21T01:36:26.260Z,11.37
2022-09-21T01:37:26.251Z,11.50
2022-09-21T01:38:26.238Z,11.47
2022-09-21T01:39:26.222Z,11.48
2022-09-21T01:40:26.306Z,11.43
2022-09-21T01:41:26.208Z,11.43
2022-09-21T01:42:26.195Z,11.35
2022-09-21T01:43:26.175Z,11.43
2022-09-21T01:44:26.164Z,11.36
2022-09-21T01:45:26.181Z,11.44
2022-09-21T01:46:26.166Z,11.37
2022-09-21T01:47:26.148Z,11.40
2022-09-21T01:48:26.130Z,11.40
2022-09-21T01:49:26.137Z,11.40
2022-09-21T01:50:26.106Z,11.40
2022-09-21T01:51:26.616Z,11.40
2022-09-21T01:52:26.105Z,11.43
2022-09-21T01:53:26.082Z,11.40
2022-09-21T01:54:26.079Z,11.43
2022-09-21T01:55:26.053Z,11.37
2022-09-21T01:56:26.034Z,11.41
2022-09-21T01:57:26.034Z,11.43
2022-09-21T01:58:26.017Z,11.43
2022-09-21T01:59:26.011Z,11.41
2022-09-21T02:00:26.024Z,11.41
2022-09-21T02:01:25.989Z,11.37
2022-09-21T02:02:25.986Z,11.43
2022-09-21T02:03:25.973Z,11.43
2022-09-21T02:04:25.957Z,11.44
2022-09-21T02:05:25.984Z,11.41
2022-09-21T02:06:25.948Z,11.41
2022-09-21T02:07:25.922Z,11.37
2022-09-21T02:08:25.915Z,11.30
2022-09-21T02:09:25.904Z,11.33
2022-09-21T02:10:25.885Z,11.36
2022-09-21T02:11:25.898Z,11.36
2022-09-21T02:12:25.862Z,11.30
2022-09-21T02:13:25.859Z,11.30
2022-09-21T02:14:25.850Z,11.26
2022-09-21T02:15:25.853Z,11.25
2022-09-21T02:16:25.886Z,11.30
2022-09-21T02:17:25.813Z,11.30
2022-09-21T02:18:25.818Z,11.29
2022-09-21T02:19:25.788Z,11.33
2022-09-21T02:20:25.788Z,11.22
2022-09-21T02:21:25.782Z,11.18
2022-09-21T02:22:25.766Z,11.22
2022-09-21T02:23:25.745Z,11.19
2022-09-21T02:24:25.738Z,11.26
2022-09-21T02:25:25.727Z,11.22
2022-09-21T02:26:25.718Z,11.23
2022-09-21T02:27:25.719Z,11.23
2022-09-21T02:28:25.692Z,11.19
2022-09-21T02:29:25.679Z,11.22
2022-09-21T02:30:25.676Z,11.26
2022-09-21T02:31:25.711Z,11.25
2022-09-21T02:32:25.667Z,11.22
2022-09-21T02:33:25.654Z,11.25
2022-09-21T02:34:25.648Z,11.29
2022-09-21T02:35:25.624Z,11.29
2022-09-21T02:36:25.605Z,11.22
2022-09-21T02:37:25.593Z,11.19
2022-09-21T02:38:25.606Z,11.29
2022-09-21T02:39:25.588Z,11.27
2022-09-21T02:40:25.601Z,11.14
2022-09-21T02:41:25.554Z,11.26
2022-09-21T02:42:25.543Z,11.19
2022-09-21T02:43:25.530Z,11.29
2022-09-21T02:44:25.532Z,11.25
2022-09-21T02:45:25.513Z,11.25
2022-09-21T02:46:25.540Z,11.29
2022-09-21T02:47:25.486Z,11.27
2022-09-21T02:48:25.473Z,11.18
2022-09-21T02:49:25.480Z,11.19
2022-09-21T02:50:25.478Z,11.18
2022-09-21T02:51:25.460Z,11.14
2022-09-21T02:52:25.431Z,11.22
2022-09-21T02:53:25.435Z,11.29
2022-09-21T02:54:25.414Z,11.23
2022-09-21T02:55:25.428Z,11.25
2022-09-21T02:56:25.403Z,11.25
2022-09-21T02:57:25.373Z,11.18
2022-09-21T02:58:25.363Z,11.18
2022-09-21T02:59:25.356Z,11.18
2022-09-21T03:00:25.401Z,11.17
2022-09-21T03:01:25.337Z,11.17
2022-09-21T03:02:25.349Z,11.14
2022-09-21T03:03:25.311Z,11.15
2022-09-21T03:04:25.303Z,11.14
2022-09-21T03:05:25.291Z,11.15
2022-09-21T03:06:25.399Z,11.14
2022-09-21T03:07:25.286Z,11.15
2022-09-21T03:08:25.259Z,11.14
2022-09-21T03:09:25.249Z,11.12
2022-09-21T03:10:25.262Z,11.12
2022-09-21T03:11:25.233Z,11.12
2022-09-21T03:12:25.248Z,10.99
2022-09-21T03:13:25.214Z,11.04
2022-09-21T03:14:25.203Z,11.07
2022-09-21T03:15:25.183Z,11.05
2022-09-21T03:16:25.174Z,11.11
2022-09-21T03:17:25.169Z,11.04
2022-09-21T03:18:25.171Z,11.05
2022-09-21T03:19:25.149Z,11.10
2022-09-21T03:20:25.129Z,11.02
2022-09-21T03:21:25.135Z,11.00
2022-09-21T03:22:25.121Z,11.00
2022-09-21T03:23:25.109Z,10.93
2022-09-21T03:24:25.097Z,10.94
2022-09-21T03:25:25.075Z,10.90
2022-09-21T03:26:25.066Z,10.93
2022-09-21T03:27:25.075Z,10.96
2022-09-21T03:28:25.043Z,10.93
2022-09-21T03:29:25.052Z,10.93
2022-09-21T03:30:25.028Z,10.97
2022-09-21T03:31:25.091Z,10.97
2022-09-21T03:32:25.000Z,10.99
2022-09-21T03:33:24.992Z,10.93
2022-09-21T03:34:24.987Z,10.97
2022-09-21T03:35:24.996Z,10.92
2022-09-21T03:36:24.960Z,10.92
2022-09-21T03:37:24.966Z,11.00
2022-09-21T03:38:24.950Z,10.93
2022-09-21T03:39:24.931Z,11.02
2022-09-21T03:40:24.978Z,10.97
2022-09-21T03:41:24.910Z,10.93
2022-09-21T03:42:24.900Z,10.87
2022-09-21T03:43:24.881Z,10.93
2022-09-21T03:44:24.878Z,10.96
2022-09-21T03:45:24.867Z,10.89
2022-09-21T03:46:24.901Z,10.82
2022-09-21T03:47:24.842Z,10.89
2022-09-21T03:48:24.833Z,10.92
2022-09-21T03:49:24.820Z,10.90
2022-09-21T03:50:24.813Z,10.93
2022-09-21T03:51:24.807Z,10.89
2022-09-21T03:52:24.792Z,10.86
2022-09-21T03:53:24.776Z,10.90
2022-09-21T03:54:24.787Z,10.86
2022-09-21T03:55:24.751Z,10.84
2022-09-21T03:56:24.764Z,10.79
2022-09-21T03:57:24.729Z,10.90
2022-09-21T03:58:24.729Z,10.90
2022-09-21T03:59:24.708Z,10.89
2022-09-21T04:00:24.715Z,10.84
2022-09-21T04:01:24.735Z,10.87
2022-09-21T04:02:24.720Z,10.92
2022-09-21T04:03:24.675Z,10.92
2022-09-21T04:04:24.664Z,10.96
2022-09-21T04:05:24.658Z,10.93
2022-09-21T04:06:24.643Z,10.89
2022-09-21T04:07:24.648Z,10.87
2022-09-21T04:08:24.618Z,10.87
2022-09-21T04:09:24.603Z,10.93
2022-09-21T04:10:24.611Z,10.96
2022-09-21T04:11:24.595Z,10.90
2022-09-21T04:12:24.575Z,10.90
2022-09-21T04:13:24.580Z,10.89
2022-09-21T04:14:24.553Z,10.90
2022-09-21T04:15:24.547Z,10.87
2022-09-21T04:16:24.545Z,10.90
2022-09-21T04:17:24.511Z,10.90
2022-09-21T04:18:24.509Z,10.87
2022-09-21T04:19:24.502Z,10.87
2022-09-21T04:20:24.496Z,10.90
2022-09-21T04:21:24.483Z,10.90
2022-09-21T04:22:24.465Z,10.89
2022-09-21T04:23:24.449Z,10.81
2022-09-21T04:24:24.440Z,10.79
2022-09-21T04:25:24.429Z,10.89
2022-09-21T04:26:24.456Z,10.87
2022-09-21T04:27:24.417Z,10.86
2022-09-21T04:28:24.421Z,10.86
2022-09-21T04:29:24.393Z,10.87
2022-09-21T04:30:24.371Z,10.82
2022-09-21T04:31:24.450Z,10.81
2022-09-21T04:32:24.367Z,10.87
2022-09-21T04:33:24.353Z,10.87
2022-09-21T04:34:24.340Z,10.90
2022-09-21T04:35:24.350Z,10.78
2022-09-21T04:36:24.320Z,10.93
2022-09-21T04:37:24.309Z,10.84
2022-09-21T04:38:24.296Z,10.90
2022-09-21T04:39:24.285Z,10.86
2022-09-21T04:40:24.294Z,10.89
2022-09-21T04:41:24.278Z,10.81
2022-09-21T04:42:24.268Z,10.78
2022-09-21T04:43:24.234Z,10.79
2022-09-21T04:44:24.225Z,10.78
2022-09-21T04:45:24.225Z,10.79
2022-09-21T04:46:24.272Z,10.79
2022-09-21T04:47:24.201Z,10.82
2022-09-21T04:48:24.183Z,10.79
2022-09-21T04:49:24.170Z,10.78
2022-09-21T04:50:24.162Z,10.82
2022-09-21T04:51:24.155Z,10.76
2022-09-21T04:52:24.149Z,10.82
2022-09-21T04:53:24.131Z,10.82
2022-09-21T04:54:24.125Z,10.76
2022-09-21T04:55:24.109Z,10.79
2022-09-21T04:56:24.106Z,10.78
2022-09-21T04:57:24.147Z,10.76
2022-09-21T04:58:24.664Z,10.78
2022-09-21T04:59:24.064Z,10.78
2022-09-21T05:00:24.050Z,10.78
2022-09-21T05:01:24.071Z,10.76
2022-09-21T05:02:24.038Z,10.75
2022-09-21T05:03:24.075Z,10.86
2022-09-21T05:04:24.008Z,10.89
2022-09-21T05:05:23.997Z,10.82
2022-09-21T05:06:23.990Z,10.81
2022-09-21T05:07:23.988Z,10.81
2022-09-21T05:08:23.984Z,10.82
2022-09-21T05:09:23.954Z,10.78
2022-09-21T05:10:23.944Z,10.76
2022-09-21T05:11:23.937Z,10.76
2022-09-21T05:12:23.934Z,10.79
2022-09-21T05:13:23.913Z,10.76
2022-09-21T05:14:23.933Z,10.82
2022-09-21T05:15:23.957Z,10.82
2022-09-21T05:16:23.878Z,10.89
2022-09-21T05:17:23.869Z,10.86
2022-09-21T05:18:23.857Z,10.82
2022-09-21T05:19:23.888Z,10.87
2022-09-21T05:20:23.852Z,10.87
2022-09-21T05:21:23.830Z,10.81
2022-09-21T05:22:23.821Z,10.89
2022-09-21T05:23:23.812Z,10.81
2022-09-21T05:24:23.794Z,10.90
2022-09-21T05:25:23.813Z,10.86
2022-09-21T05:26:23.778Z,10.86
2022-09-21T05:27:23.783Z,10.86
2022-09-21T05:28:23.757Z,10.78
2022-09-21T05:29:23.751Z,10.81
2022-09-21T05:30:23.756Z,10.84
2022-09-21T05:31:23.773Z,10.86
2022-09-21T05:32:23.727Z,10.84
2022-09-21T05:33:23.698Z,10.92
2022-09-21T05:34:23.695Z,10.90
2022-09-21T05:35:23.675Z,10.99
2022-09-21T05:36:23.695Z,10.96
2022-09-21T05:37:23.656Z,10.84
2022-09-21T05:38:23.642Z,10.82
2022-09-21T05:39:23.631Z,10.86
2022-09-21T05:40:23.750Z,10.87
2022-09-21T05:41:23.626Z,10.90
2022-09-21T05:42:23.613Z,10.81
2022-09-21T05:43:23.605Z,10.82
2022-09-21T05:44:23.596Z,10.86
2022-09-21T05:45:23.580Z,10.84
2022-09-21T05:46:23.639Z,10.93
2022-09-21T05:47:23.560Z,11.00
2022-09-21T05:48:23.542Z,11.00
2022-09-21T05:49:23.526Z,10.97
2022-09-21T05:50:23.522Z,11.02
2022-09-21T05:51:23.577Z,11.07
2022-09-21T05:52:23.516Z,11.12
2022-09-21T05:53:23.488Z,11.15
2022-09-21T05:54:23.486Z,11.18
2022-09-21T05:55:23.479Z,11.18
2022-09-21T05:56:23.458Z,11.29
2022-09-21T05:57:27.355Z,11.41
2022-09-21T05:58:24.437Z,11.43
2022-09-21T05:59:23.443Z,11.43
2022-09-21T06:00:23.413Z,11.52
2022-09-21T06:01:23.458Z,11.50
2022-09-21T06:02:23.444Z,11.50
2022-09-21T06:03:23.388Z,11.57
2022-09-21T06:04:23.401Z,11.55
2022-09-21T06:05:23.370Z,11.66
2022-09-21T06:06:23.343Z,11.68
2022-09-21T06:07:23.386Z,11.70
2022-09-21T06:08:23.320Z,11.66
2022-09-21T06:09:23.339Z,11.77
2022-09-21T06:10:23.319Z,11.80
2022-09-21T06:11:23.430Z,11.84
2022-09-21T06:12:23.288Z,11.78
2022-09-21T06:13:23.266Z,11.90
2022-09-21T06:14:23.273Z,11.86
2022-09-21T06:15:23.267Z,11.86
2022-09-21T06:16:23.379Z,12.02
2022-09-21T06:17:23.237Z,11.94
2022-09-21T06:18:23.263Z,11.94
2022-09-21T06:19:23.203Z,12.10
2022-09-21T06:20:23.187Z,12.00
2022-09-21T06:21:23.201Z,12.06
2022-09-21T06:22:23.185Z,12.10
2022-09-21T06:23:23.166Z,12.10
2022-09-21T06:24:24.763Z,12.13
2022-09-21T06:25:23.137Z,12.22
2022-09-21T06:26:23.138Z,12.27
2022-09-21T06:27:23.145Z,12.27
2022-09-21T06:28:23.109Z,12.37
2022-09-21T06:29:23.100Z,12.35
2022-09-21T06:30:23.122Z,12.37
2022-09-21T06:31:23.090Z,12.37
2022-09-21T06:32:23.063Z,12.42
2022-09-21T06:33:23.072Z,12.53
2022-09-21T06:34:23.058Z,12.40
2022-09-21T06:35:23.061Z,12.53
2022-09-21T06:36:23.037Z,12.43
2022-09-21T06:37:23.026Z,12.54
2022-09-21T06:38:23.020Z,12.54
2022-09-21T06:39:23.000Z,12.53
2022-09-21T06:40:23.003Z,12.54
2022-09-21T06:41:22.978Z,12.57
2022-09-21T06:42:22.956Z,12.68
2022-09-21T06:43:22.951Z,12.68
2022-09-21T06:44:23.211Z,12.73
2022-09-21T06:45:22.931Z,12.64
2022-09-21T06:46:22.938Z,12.73
2022-09-21T06:47:22.910Z,12.80
2022-09-21T06:48:22.890Z,12.83
2022-09-21T06:49:22.917Z,12.86
2022-09-21T06:50:22.893Z,12.82
2022-09-21T06:51:22.863Z,12.85
2022-09-21T06:52:22.853Z,12.78
2022-09-21T06:53:22.843Z,12.86
2022-09-21T06:54:22.833Z,12.85
2022-09-21T06:55:22.836Z,12.87
2022-09-21T06:56:22.817Z,12.87
2022-09-21T06:57:22.805Z,12.87
2022-09-21T06:58:22.797Z,12.91
2022-09-21T06:59:22.784Z,12.85
2022-09-21T07:00:22.760Z,12.86
2022-09-21T07:01:22.831Z,12.85
2022-09-21T07:02:22.740Z,12.93
2022-09-21T07:03:22.733Z,12.90
2022-09-21T07:04:25.071Z,12.97
2022-09-21T07:05:22.742Z,12.94
2022-09-21T07:06:22.717Z,13.05
2022-09-21T07:07:22.695Z,13.09
2022-09-21T07:10:23.670Z,13.13
2022-09-21T07:11:22.660Z,13.28
2022-09-21T07:12:22.640Z,13.22
2022-09-21T07:13:22.641Z,13.28
2022-09-21T07:14:22.621Z,13.37
2022-09-21T07:15:22.615Z,13.37
2022-09-21T07:16:22.681Z,13.37
2022-09-21T07:17:22.588Z,13.39
2022-09-21T07:18:22.574Z,13.46
2022-09-21T07:19:22.565Z,13.46
2022-09-21T07:20:22.558Z,13.50
2022-09-21T07:21:22.538Z,13.57
2022-09-21T07:22:22.586Z,13.53
2022-09-21T07:23:22.735Z,13.70
2022-09-21T07:24:22.553Z,13.68
2022-09-21T07:25:22.500Z,13.77
2022-09-21T07:26:22.502Z,13.81
2022-09-21T07:27:22.468Z,13.96
2022-09-21T07:28:22.461Z,14.04
2022-09-21T07:29:22.475Z,14.12
2022-09-21T07:30:22.452Z,14.18
2022-09-21T07:31:22.464Z,14.30
2022-09-21T07:32:22.424Z,14.44
2022-09-21T07:33:22.422Z,14.44
2022-09-21T07:34:22.414Z,14.60
2022-09-21T07:35:22.403Z,14.68
2022-09-21T07:36:22.375Z,14.81
2022-09-21T07:37:22.369Z,14.85
2022-09-21T07:38:22.372Z,15.06
2022-09-21T07:39:22.346Z,15.09
2022-09-21T07:40:25.161Z,15.15
2022-09-21T07:41:22.326Z,15.28
2022-09-21T07:42:22.317Z,15.14
2022-09-21T07:43:22.299Z,15.10
2022-09-21T07:44:22.308Z,15.29
2022-09-21T07:45:22.393Z,15.18
2022-09-21T07:46:22.294Z,15.04
2022-09-21T07:47:22.256Z,15.04
2022-09-21T07:48:22.240Z,14.89
2022-09-21T07:49:22.232Z,14.68
2022-09-21T07:50:22.234Z,14.59
2022-09-21T07:51:22.206Z,14.63
2022-09-21T07:52:22.220Z,14.58
2022-09-21T07:53:22.219Z,14.47
2022-09-21T07:54:22.193Z,14.44
2022-09-21T07:55:22.174Z,14.55
2022-09-21T07:56:22.151Z,14.72
2022-09-21T07:57:22.245Z,14.73
2022-09-21T07:58:22.158Z,14.72
2022-09-21T07:59:22.158Z,14.73
2022-09-21T08:00:22.124Z,14.96
2022-09-21T08:01:22.211Z,15.02
2022-09-21T08:02:22.165Z,15.25
2022-09-21T08:03:22.227Z,15.33
2022-09-21T08:04:22.133Z,15.37
2022-09-21T08:05:22.278Z,15.57
2022-09-21T08:06:22.077Z,15.67
2022-09-21T08:07:22.079Z,15.73
2022-09-21T08:08:22.105Z,15.62
2022-09-21T08:09:22.028Z,15.76
2022-09-21T08:10:22.043Z,15.86
2022-09-21T08:11:22.030Z,15.82
2022-09-21T08:12:22.014Z,15.88
2022-09-21T08:13:22.080Z,15.75
2022-09-21T08:14:26.015Z,15.75
2022-09-21T08:15:47.023Z,15.73
2022-09-21T08:16:23.125Z,15.82
2022-09-21T08:17:21.992Z,15.84
2022-09-21T08:18:21.959Z,15.88
2022-09-21T08:19:21.969Z,15.95
2022-09-21T08:20:21.962Z,15.98
2022-09-21T08:21:21.999Z,16.09
2022-09-21T08:22:21.951Z,16.00
2022-09-21T08:23:21.885Z,15.98
2022-09-21T08:24:21.875Z,15.91
2022-09-21T08:25:21.942Z,15.94
2022-09-21T08:26:21.903Z,15.97
2022-09-21T08:27:21.843Z,15.83
2022-09-21T08:28:22.671Z,15.65
2022-09-21T08:29:21.832Z,15.57
2022-09-21T08:30:21.804Z,15.44
2022-09-21T08:31:21.978Z,15.36
2022-09-21T08:32:39.720Z,15.33
2022-09-21T08:33:27.202Z,15.36
2022-09-21T08:34:22.848Z,15.46
2022-09-21T08:35:21.802Z,15.52
2022-09-21T08:36:21.766Z,15.58
2022-09-21T08:37:21.738Z,15.72
2022-09-21T08:38:21.792Z,15.90
2022-09-21T08:39:21.794Z,15.82
2022-09-21T08:40:21.763Z,15.90
2022-09-21T08:41:21.695Z,15.94
2022-09-21T08:42:21.681Z,16.13
2022-09-21T08:43:21.663Z,16.15
2022-09-21T08:44:21.706Z,16.32
2022-09-21T08:45:21.642Z,16.43
2022-09-21T08:46:21.674Z,16.46
2022-09-21T08:47:21.681Z,16.50
2022-09-21T08:48:25.305Z,16.65
2022-09-21T08:49:22.602Z,16.81
2022-09-21T08:50:21.629Z,16.94
2022-09-21T08:51:21.614Z,17.01
2022-09-21T08:52:21.577Z,16.96
2022-09-21T08:53:21.571Z,17.04
2022-09-21T08:54:21.551Z,17.02
2022-09-21T08:55:21.551Z,17.01
2022-09-21T08:56:21.548Z,17.05
2022-09-21T08:57:21.560Z,17.04
2022-09-21T08:58:21.534Z,16.99
2022-09-21T08:59:21.491Z,17.01
2022-09-21T09:00:21.477Z,17.04
2022-09-21T09:01:21.650Z,17.01
2022-09-21T09:02:21.528Z,17.06
2022-09-21T09:03:21.451Z,16.99
2022-09-21T09:04:21.458Z,17.04
2022-09-21T09:05:21.414Z,17.02
2022-09-21T09:06:24.710Z,16.96
2022-09-21T09:07:21.400Z,17.01
2022-09-21T09:08:21.385Z,17.11
2022-09-21T09:09:21.393Z,17.09
2022-09-21T09:10:21.388Z,17.04
2022-09-21T09:11:21.345Z,17.06
2022-09-21T09:12:21.337Z,17.16
2022-09-21T09:13:21.356Z,17.87
2022-09-21T09:14:21.340Z,19.29
2022-09-21T09:15:21.322Z,19.55
2022-09-21T09:16:21.320Z,19.58
2022-09-21T09:17:21.289Z,20.37
2022-09-21T09:18:21.268Z,20.63
2022-09-21T09:19:21.270Z,20.43
2022-09-21T09:20:21.248Z,20.43
2022-09-21T09:21:29.699Z,20.24
2022-09-21T09:22:22.223Z,20.16
2022-09-21T09:23:21.220Z,20.59
2022-09-21T09:24:21.204Z,20.62
2022-09-21T09:25:21.215Z,20.48
2022-09-21T09:26:21.193Z,20.44
2022-09-21T09:27:21.266Z,20.32
2022-09-21T09:28:21.174Z,20.28
2022-09-21T09:29:21.159Z,20.06
2022-09-21T09:30:21.262Z,19.86
2022-09-21T09:31:21.216Z,19.73
2022-09-21T09:32:21.144Z,19.59
2022-09-21T09:33:21.113Z,20.16
2022-09-21T09:34:21.102Z,20.63
2022-09-21T09:35:21.094Z,20.60
2022-09-21T09:36:40.278Z,20.62
2022-09-21T09:37:22.094Z,21.72
2022-09-21T09:38:21.057Z,21.61
2022-09-21T09:39:21.039Z,22.72
2022-09-21T09:40:21.102Z,23.84
2022-09-21T09:41:21.028Z,24.28
2022-09-21T09:42:21.010Z,24.70
2022-09-21T09:43:21.047Z,26.03
2022-09-21T09:44:20.997Z,27.27
2022-09-21T09:45:24.228Z,28.49
2022-09-21T09:46:21.057Z,29.26
2022-09-21T09:47:20.961Z,29.54
2022-09-21T09:48:20.981Z,29.82
2022-09-21T09:49:20.954Z,30.13
2022-09-21T09:50:20.986Z,30.53
2022-09-21T09:51:20.931Z,30.91
2022-09-21T09:52:20.912Z,31.28
2022-09-21T09:53:20.900Z,31.65
2022-09-21T09:54:20.901Z,31.85
2022-09-21T09:55:20.873Z,32.03
2022-09-21T09:56:20.867Z,31.90
2022-09-21T09:57:20.865Z,32.03
2022-09-21T09:58:20.886Z,31.92
2022-09-21T09:59:20.855Z,31.49
2022-09-21T10:00:20.885Z,31.12
2022-09-21T10:01:20.855Z,30.61
2022-09-21T10:02:20.832Z,29.97
2022-09-21T10:03:20.812Z,29.07
2022-09-21T10:04:20.859Z,28.35
2022-09-21T10:05:20.789Z,27.65
2022-09-21T10:06:20.771Z,27.07
2022-09-21T10:07:20.770Z,26.55
2022-09-21T10:08:20.750Z,25.88
2022-09-21T10:09:20.772Z,25.36
2022-09-21T10:10:20.809Z,25.14
2022-09-21T10:11:20.722Z,24.65
2022-09-21T10:12:20.715Z,24.38
2022-09-21T10:13:20.710Z,24.08
2022-09-21T10:14:20.694Z,23.98
2022-09-21T10:15:20.707Z,23.73
2022-09-21T10:16:20.712Z,23.55
2022-09-21T10:17:20.690Z,23.41
2022-09-21T10:18:20.690Z,23.23
2022-09-21T10:19:20.641Z,23.03
2022-09-21T10:20:20.654Z,22.91
2022-09-21T10:21:20.618Z,22.78
2022-09-21T10:22:20.622Z,22.68
2022-09-21T10:23:20.618Z,22.60
2022-09-21T10:24:20.594Z,22.14
2022-09-21T10:25:20.598Z,21.96
2022-09-21T10:26:20.574Z,21.79
2022-09-21T10:27:20.562Z,21.66
2022-09-21T10:28:20.569Z,21.52
2022-09-21T10:29:20.547Z,21.25
2022-09-21T10:30:20.620Z,20.96
2022-09-21T10:31:20.576Z,20.81
2022-09-21T10:32:20.505Z,20.82
2022-09-21T10:33:20.505Z,20.90
2022-09-21T10:34:20.510Z,21.00
2022-09-21T10:35:20.496Z,21.12
2022-09-21T10:36:20.462Z,21.21
2022-09-21T10:37:20.455Z,21.37
2022-09-21T10:38:22.610Z,21.45
2022-09-21T10:39:20.430Z,21.51
2022-09-21T10:40:20.754Z,21.37
2022-09-21T10:41:20.410Z,21.14
2022-09-21T10:42:20.402Z,20.93
2022-09-21T10:43:20.386Z,20.65
2022-09-21T10:44:21.268Z,20.60
2022-09-21T10:45:21.296Z,20.41
2022-09-21T10:46:20.412Z,20.22
2022-09-21T10:47:20.348Z,20.16
2022-09-21T10:48:20.352Z,20.09
2022-09-21T10:49:20.325Z,20.02
2022-09-21T10:50:20.495Z,19.88
2022-09-21T10:51:20.334Z,20.07
2022-09-21T10:52:20.361Z,20.11
2022-09-21T10:53:20.282Z,20.36
2022-09-21T10:54:20.271Z,20.41
2022-09-21T10:55:20.265Z,20.51
2022-09-21T10:56:20.265Z,20.69
2022-09-21T10:57:20.253Z,20.72
2022-09-21T10:58:20.224Z,20.80
2022-09-21T10:59:20.221Z,20.90
2022-09-21T11:00:20.216Z,20.90
2022-09-21T11:01:20.212Z,21.06
2022-09-21T11:02:20.220Z,21.02
2022-09-21T11:03:20.173Z,20.96
2022-09-21T11:04:20.203Z,21.00
2022-09-21T11:05:20.174Z,21.09
2022-09-21T11:06:20.160Z,21.06
2022-09-21T11:07:20.133Z,20.96
2022-09-21T11:08:20.123Z,21.05
2022-09-21T11:09:20.110Z,21.02
2022-09-21T11:10:20.133Z,21.03
2022-09-21T11:11:20.096Z,21.05
2022-09-21T11:12:20.079Z,21.09
2022-09-21T11:13:20.095Z,21.07
2022-09-21T11:14:20.193Z,21.18
2022-09-21T11:15:20.067Z,21.18
2022-09-21T11:16:20.110Z,21.11
2022-09-21T11:17:20.021Z,21.09
2022-09-21T11:18:20.014Z,20.81
2022-09-21T11:19:20.002Z,20.85
2022-09-21T11:20:20.000Z,20.67
2022-09-21T11:21:19.993Z,20.63
2022-09-21T11:22:19.996Z,20.44
2022-09-21T11:23:19.965Z,20.28
2022-09-21T11:24:19.972Z,19.96
2022-09-21T11:25:19.936Z,19.71
2022-09-21T11:26:20.010Z,19.54
2022-09-21T11:27:19.923Z,19.48
2022-09-21T11:28:19.912Z,19.48
2022-09-21T11:29:19.931Z,19.36
2022-09-21T11:30:20.765Z,19.36
2022-09-21T11:31:19.963Z,19.31
2022-09-21T11:32:19.867Z,19.29
2022-09-21T11:33:19.858Z,19.22
2022-09-21T11:34:19.844Z,19.22
2022-09-21T11:35:19.848Z,19.31
2022-09-21T11:36:19.828Z,19.19
2022-09-21T11:37:19.847Z,19.09
2022-09-21T11:38:19.827Z,19.27
2022-09-21T11:39:19.797Z,19.31
2022-09-21T11:40:19.897Z,19.48
2022-09-21T11:41:19.926Z,19.79
2022-09-21T11:42:19.765Z,20.00
2022-09-21T11:43:22.327Z,20.10
2022-09-21T11:44:19.735Z,20.09
2022-09-21T11:45:19.726Z,20.03
2022-09-21T11:46:19.781Z,20.03
2022-09-21T11:47:19.707Z,20.14
2022-09-21T11:48:19.721Z,20.24
2022-09-21T11:49:19.678Z,20.31
2022-09-21T11:50:30.343Z,20.22
2022-09-21T11:51:20.723Z,20.24
2022-09-21T11:52:19.649Z,20.18
2022-09-21T11:53:19.727Z,20.26
2022-09-21T11:54:19.671Z,20.21
2022-09-21T11:55:19.614Z,20.19
2022-09-21T11:56:19.689Z,20.19
2022-09-21T11:57:19.611Z,20.06
2022-09-21T11:58:19.622Z,20.02
2022-09-21T11:59:19.584Z,19.99
2022-09-21T12:00:19.581Z,19.94
2022-09-21T12:01:19.582Z,19.85
2022-09-21T12:02:19.779Z,19.81
2022-09-21T12:03:19.534Z,19.73
2022-09-21T12:04:19.540Z,19.58
2022-09-21T12:05:19.543Z,19.39
2022-09-21T12:06:19.500Z,19.49
2022-09-21T12:07:19.493Z,19.40
2022-09-21T12:08:19.511Z,19.26
2022-09-21T12:09:19.463Z,19.04
2022-09-21T12:10:19.488Z,18.96
2022-09-21T12:11:19.449Z,18.96
2022-09-21T12:12:19.448Z,18.95
2022-09-21T12:13:19.423Z,18.92
2022-09-21T12:14:19.448Z,18.89
2022-09-21T12:15:19.458Z,18.89
2022-09-21T12:16:19.473Z,18.80
2022-09-21T12:17:19.390Z,18.86
2022-09-21T12:18:19.372Z,18.83
2022-09-21T12:19:19.362Z,18.95
2022-09-21T12:20:19.360Z,19.09
2022-09-21T12:21:19.343Z,19.27
2022-09-21T12:22:19.337Z,19.29
2022-09-21T12:23:19.327Z,19.56
2022-09-21T12:24:19.309Z,19.58
2022-09-21T12:25:19.295Z,19.73
2022-09-21T12:26:19.316Z,19.81
2022-09-21T12:27:19.271Z,19.91
2022-09-21T12:28:19.263Z,19.94
2022-09-21T12:29:19.252Z,19.91
2022-09-21T12:30:19.253Z,19.99
2022-09-21T12:31:19.301Z,20.03
2022-09-21T12:32:19.238Z,20.07
2022-09-21T12:33:19.208Z,20.11
2022-09-21T12:34:19.205Z,20.02
2022-09-21T12:35:19.219Z,19.84
2022-09-21T12:36:19.179Z,19.82
2022-09-21T12:37:19.176Z,19.58
2022-09-21T12:38:19.273Z,19.56
2022-09-21T12:39:19.144Z,19.41
2022-09-21T12:40:19.240Z,19.37
2022-09-21T12:41:19.135Z,19.31
2022-09-21T12:42:19.130Z,19.22
2022-09-21T12:43:19.112Z,19.15
2022-09-21T12:44:19.107Z,18.96
2022-09-21T12:45:19.098Z,18.96
2022-09-21T12:46:27.904Z,18.90
2022-09-21T12:47:19.067Z,18.95
2022-09-21T12:48:19.049Z,18.86
2022-09-21T12:49:19.039Z,18.83
2022-09-21T12:50:19.022Z,18.89
2022-09-21T12:51:19.015Z,18.83
2022-09-21T12:52:19.020Z,18.80
2022-09-21T12:53:19.037Z,18.77
2022-09-21T12:54:18.983Z,18.80